Time;durP1;ratioP1;P1;durP2;ratioP2;P2;SDS_P1;SDS_P2;PMS_P1;PMS_P2;Temp;Humidity;BMP_temperature;BMP_pressure;BME280_temperature;BME280_humidity;BME280_pressure;Samples;Min_cycle;Max_cycle;Signal;HPM_P1;HPM_P2
2022/07/07 00:00:07;;;;;;;8.13;4.57;;;14.60;99.90;;;14.74;100.00;98983.69;5000112;28;119532;-75
2022/07/07 00:02:35;;;;;;;6.25;4.55;;;14.50;99.90;;;14.72;100.00;98985.16;4983120;28;128793;-71
2022/07/07 00:05:04;;;;;;;8.85;4.75;;;14.50;99.90;;;14.73;100.00;98989.50;4999298;28;129432;-73
2022/07/07 00:07:33;;;;;;;6.57;4.90;;;14.50;99.90;;;14.67;100.00;98988.94;4998642;28;119765;-77
2022/07/07 00:10:01;;;;;;;5.93;4.63;;;14.40;99.90;;;14.66;100.00;98986.56;4985473;28;119062;-74
2022/07/07 00:12:30;;;;;;;8.63;4.60;;;14.50;99.90;;;14.65;100.00;98985.78;4982150;28;130237;-72
2022/07/07 00:14:59;;;;;;;5.85;4.13;;;14.50;99.90;;;14.63;100.00;98988.09;4984351;28;128900;-79
2022/07/07 00:17:29;;;;;;;9.98;4.70;;;14.40;99.90;;;14.59;100.00;98986.38;4984107;28;118440;-76
2022/07/07 00:19:58;;;;;;;6.13;3.97;;;14.40;99.90;;;14.55;100.00;98986.28;4999260;28;120524;-71
2022/07/07 00:22:27;;;;;;;5.78;4.32;;;14.50;99.90;;;14.56;100.00;98993.31;4999317;28;129325;-74
2022/07/07 00:24:56;;;;;;;5.72;3.85;;;14.40;99.90;;;14.57;100.00;98994.91;4984928;28;128700;-75
2022/07/07 00:27:25;;;;;;;6.38;4.63;;;14.50;99.90;;;14.56;100.00;98993.31;4980818;28;122037;-77
2022/07/07 00:29:53;;;;;;;5.32;4.20;;;14.40;99.90;;;14.58;100.00;99007.41;4998587;28;122741;-73
2022/07/07 00:32:22;;;;;;;6.32;4.30;;;14.40;99.90;;;14.55;100.00;99008.13;5000662;28;129390;-76
2022/07/07 00:34:52;;;;;;;8.23;4.70;;;14.40;99.90;;;14.55;100.00;99008.94;4967834;28;129322;-73
2022/07/07 00:37:20;;;;;;;5.72;4.40;;;14.40;99.90;;;14.56;100.00;99009.72;4999408;28;119655;-74
2022/07/07 00:39:49;;;;;;;5.95;4.32;;;14.40;99.90;;;14.55;100.00;99000.72;4999458;28;119602;-71
2022/07/07 00:42:18;;;;;;;6.72;4.95;;;14.40;99.90;;;14.52;100.00;99014.28;4997341;28;129835;-77
2022/07/07 00:44:47;;;;;;;5.60;4.30;;;14.40;99.90;;;14.52;100.00;99019.72;5001299;28;129257;-74
2022/07/07 00:47:17;;;;;;;5.75;4.40;;;14.40;99.90;;;14.56;100.00;99020.63;4999553;28;120482;-76
2022/07/07 00:49:45;;;;;;;6.53;4.45;;;14.40;99.90;;;14.56;100.00;99009.72;4999649;28;119625;-74
2022/07/07 00:52:16;;;;;;;7.53;5.20;;;14.40;99.90;;;14.58;100.00;99021.06;4997682;28;130358;-75
2022/07/07 00:54:53;;;;;;;7.40;4.50;;;14.40;99.90;;;14.57;100.00;99016.78;5000385;28;129864;-74
2022/07/07 00:57:21;;;;;;;7.30;4.80;;;14.40;99.90;;;14.58;100.00;99012.88;4981240;28;119703;-74
2022/07/07 00:59:50;;;;;;;7.60;4.82;;;14.40;99.90;;;14.61;100.00;99016.88;4967979;28;118825;-75
2022/07/07 01:02:19;;;;;;;7.30;5.07;;;14.40;99.90;;;14.59;100.00;99014.47;4984307;28;129114;-77
2022/07/07 01:04:47;;;;;;;7.40;5.05;;;14.40;99.90;;;14.65;100.00;99012.31;4998510;28;129525;-78
2022/07/07 01:07:17;;;;;;;7.60;5.20;;;14.50;99.90;;;14.64;100.00;99014.22;4998267;28;119541;-75
2022/07/07 01:09:47;;;;;;;5.60;4.38;;;14.40;99.90;;;14.60;100.00;99020.72;4999733;28;120215;-76
2022/07/07 01:12:15;;;;;;;7.07;5.70;;;14.30;99.90;;;14.59;100.00;99025.38;4998683;28;130295;-76
2022/07/07 01:14:44;;;;;;;7.50;5.55;;;14.30;99.90;;;14.56;100.00;99026.09;5001352;28;129606;-71
2022/07/07 01:17:12;;;;;;;8.43;5.13;;;14.30;99.90;;;14.55;100.00;99027.22;5000250;28;122425;-74
2022/07/07 01:19:41;;;;;;;6.60;5.63;;;14.30;99.90;;;14.51;100.00;99023.63;5002162;28;122247;-75
2022/07/07 01:22:14;;;;;;;7.18;5.80;;;14.30;99.90;;;14.49;100.00;99025.88;5002500;28;130391;-75
2022/07/07 01:24:45;;;;;;;9.20;5.90;;;14.20;99.90;;;14.46;100.00;99032.84;5002046;28;129807;-73
2022/07/07 01:27:16;;;;;;;9.88;6.45;;;14.20;99.90;;;14.44;100.00;99039.81;5002156;28;119408;-72
2022/07/07 01:29:46;;;;;;;7.97;6.00;;;14.20;99.90;;;14.41;100.00;99035.81;5004487;28;119540;-76
2022/07/07 01:32:16;;;;;;;9.90;6.70;;;14.20;99.90;;;14.41;100.00;99030.38;5001815;28;130030;-75
2022/07/07 01:34:46;;;;;;;7.88;5.97;;;14.20;99.90;;;14.43;100.00;99032.75;4983943;28;129230;-78
2022/07/07 01:37:15;;;;;;;12.32;6.30;;;14.10;99.90;;;14.46;100.00;99041.06;4987627;28;119125;-75
2022/07/07 01:39:46;;;;;;;8.55;6.32;;;14.20;99.90;;;14.48;100.00;99043.44;5002244;28;119592;-78
2022/07/07 01:42:15;;;;;;;8.98;6.40;;;14.20;99.90;;;14.46;100.00;99046.50;4999273;28;129746;-77
2022/07/07 01:44:44;;;;;;;8.55;7.15;;;14.10;99.90;;;14.46;100.00;99053.88;5001726;28;129536;-77
2022/07/07 01:47:14;;;;;;;8.00;6.15;;;14.20;99.90;;;14.49;100.00;99058.66;5002377;28;119783;-77
2022/07/07 01:49:42;;;;;;;8.02;6.55;;;14.20;99.90;;;14.56;100.00;99053.41;4987264;28;118530;-77
2022/07/07 01:52:11;;;;;;;9.18;6.90;;;14.20;99.90;;;14.52;100.00;99064.22;4982905;28;129764;-75
2022/07/07 01:54:41;;;;;;;8.65;6.82;;;14.20;99.90;;;14.49;100.00;99061.38;5003020;28;129586;-76
2022/07/07 01:57:11;;;;;;;7.30;6.13;;;14.20;99.90;;;14.55;100.00;99068.19;4987677;28;119224;-77
2022/07/07 01:59:40;;;;;;;7.63;6.63;;;14.20;99.90;;;14.56;100.00;99069.78;5002345;28;119592;-75
2022/07/07 02:02:10;;;;;;;8.50;6.30;;;14.20;99.90;;;14.54;100.00;99064.66;5001501;28;129908;-76
2022/07/07 02:04:38;;;;;;;9.05;6.35;;;14.20;99.90;;;14.62;100.00;99073.09;5000122;28;130017;-75
2022/07/07 02:07:07;;;;;;;10.35;6.07;;;14.30;99.90;;;14.62;100.00;99071.16;4968897;28;120722;-75
2022/07/07 02:09:36;;;;;;;11.32;6.03;;;14.30;99.90;;;14.65;100.00;99075.91;5001240;28;121681;-75
2022/07/07 02:12:06;;;;;;;9.98;6.68;;;14.40;99.90;;;14.66;100.00;99066.59;5000968;28;130058;-75
2022/07/07 02:14:37;;;;;;;9.25;6.55;;;14.40;99.90;;;14.66;100.00;99068.50;4986715;28;129610;-76
2022/07/07 02:17:06;;;;;;;10.13;6.35;;;14.40;99.90;;;14.68;100.00;99077.94;5003927;28;119495;-76
2022/07/07 02:19:35;;;;;;;8.50;6.47;;;14.40;99.90;;;14.71;100.00;99076.47;4986219;28;118932;-75
2022/07/07 02:22:04;;;;;;;12.55;6.40;;;14.40;99.90;;;14.68;100.00;99072.47;4983072;28;129864;-74
2022/07/07 02:24:33;;;;;;;7.72;6.50;;;14.40;99.90;;;14.64;100.00;99071.59;5001169;28;129606;-77
2022/07/07 02:27:01;;;;;;;10.52;5.80;;;14.40;99.90;;;14.68;100.00;99074.44;4986392;28;118705;-76
2022/07/07 02:29:31;;;;;;;6.75;5.63;;;14.40;99.90;;;14.67;100.00;99065.41;4998965;28;119340;-73
2022/07/07 02:32:01;;;;;;;9.55;5.70;;;14.40;99.90;;;14.66;100.00;99082.97;5000167;28;130467;-76
2022/07/07 02:34:29;;;;;;;6.10;5.45;;;14.40;99.90;;;14.68;100.00;99077.94;4986705;28;128304;-76
2022/07/07 02:36:58;;;;;;;10.05;5.97;;;14.40;99.90;;;14.64;100.00;99071.59;4987087;28;118795;-76
2022/07/07 02:39:27;;;;;;;9.90;5.68;;;14.30;99.90;;;14.61;100.00;99077.75;5000275;28;119794;-76
2022/07/07 02:41:56;;;;;;;8.45;5.32;;;14.30;99.90;;;14.65;100.00;99075.91;5000354;28;130024;-75
2022/07/07 02:44:24;;;;;;;8.00;5.15;;;14.30;99.90;;;14.66;100.00;99080.25;4986655;28;128752;-75
2022/07/07 02:46:53;;;;;;;6.07;4.88;;;14.30;99.90;;;14.73;100.00;99076.91;4986620;28;119126;-81
2022/07/07 02:49:23;;;;;;;7.88;5.53;;;14.40;99.90;;;14.81;100.00;99080.63;4986381;28;119067;-77
2022/07/07 02:51:52;;;;;;;7.10;4.95;;;14.40;99.90;;;14.94;100.00;99089.53;5000043;28;129585;-76
2022/07/07 02:54:21;;;;;;;6.85;5.20;;;14.40;99.90;;;15.05;100.00;99094.13;4985554;28;128279;-79
2022/07/07 02:56:50;;;;;;;7.85;5.25;;;14.50;99.90;;;15.10;100.00;99087.63;5000196;28;122467;-76
2022/07/07 02:59:19;;;;;;;9.52;5.03;;;14.50;99.90;;;15.09;100.00;99086.03;4986339;28;121181;-76
2022/07/07 03:01:47;;;;;;;9.88;5.72;;;14.50;99.90;;;15.12;100.00;99088.06;5000991;28;129946;-75
2022/07/07 03:04:16;;;;;;;8.88;5.88;;;14.50;99.90;;;15.10;100.00;99085.66;4984494;28;129107;-76
2022/07/07 03:06:45;;;;;;;9.57;5.22;;;14.50;99.90;;;14.64;100.00;99077.03;4986355;28;119330;-76
2022/07/07 03:09:14;;;;;;;9.48;5.30;;;14.40;99.90;;;14.80;100.00;99079.00;4988742;28;119475;-76
2022/07/07 03:11:42;;;;;;;8.50;5.60;;;14.50;99.90;;;14.97;100.00;99078.69;4992059;28;128750;-76
2022/07/07 03:14:11;;;;;;;8.18;5.65;;;14.50;99.90;;;14.94;100.00;99084.84;5006208;28;129999;-75
2022/07/07 03:16:39;;;;;;;7.75;5.45;;;14.40;99.90;;;14.93;100.00;99088.75;5002200;28;119627;-75
2022/07/07 03:19:08;;;;;;;7.43;5.50;;;14.30;99.90;;;14.91;100.00;99091.81;4983141;28;119935;-78
2022/07/07 03:21:36;;;;;;;7.80;5.65;;;14.30;99.90;;;14.85;100.00;99103.34;4999231;28;130022;-77
2022/07/07 03:24:07;;;;;;;10.00;5.45;;;14.30;99.90;;;14.75;100.00;99104.66;4985519;28;129172;-73
2022/07/07 03:26:36;;;;;;;9.88;5.57;;;14.20;99.90;;;14.69;100.00;99104.13;4999648;28;120194;-77
2022/07/07 03:29:04;;;;;;;10.20;5.43;;;14.20;99.90;;;14.63;100.00;99108.25;4999577;28;119227;-78
2022/07/07 03:31:33;;;;;;;7.07;5.68;;;14.20;99.90;;;14.60;100.00;99111.66;5000020;28;130217;-76
2022/07/07 03:34:02;;;;;;;8.45;6.20;;;14.20;99.90;;;14.59;100.00;99107.31;5000177;28;129545;-76
2022/07/07 03:36:30;;;;;;;12.38;6.30;;;14.10;99.90;;;14.58;100.00;99111.19;4985177;28;119526;-73
2022/07/07 03:38:59;;;;;;;9.23;5.93;;;14.10;99.90;;;14.66;100.00;99102.09;5000626;28;119722;-78
2022/07/07 03:41:29;;;;;;;7.90;5.65;;;14.20;99.90;;;14.72;100.00;99111.63;4998849;28;129684;-75
2022/07/07 03:43:58;;;;;;;10.18;5.57;;;14.30;99.90;;;14.74;100.00;99112.06;5000094;28;129522;-76
2022/07/07 03:46:27;;;;;;;8.30;6.18;;;14.30;99.90;;;14.67;100.00;99109.13;4999196;28;122122;-72
2022/07/07 03:48:55;;;;;;;9.27;5.82;;;14.20;99.90;;;14.67;100.00;99114.59;4985368;28;121039;-76
2022/07/07 03:51:24;;;;;;;8.40;6.30;;;14.20;99.90;;;14.70;100.00;99116.63;4999994;28;131565;-77
2022/07/07 03:53:52;;;;;;;10.68;5.80;;;14.20;99.90;;;14.78;100.00;99119.56;5001296;28;129508;-73
2022/07/07 03:56:23;;;;;;;8.43;5.32;;;14.30;99.90;;;14.94;100.00;99122.31;4981076;28;103416;-72
2022/07/07 03:58:53;;;;;;;8.32;4.78;;;14.30;99.90;;;14.89;100.00;99115.16;4965416;28;118843;-71
2022/07/07 04:01:22;;;;;;;13.02;4.95;;;14.40;99.90;;;15.08;100.00;99119.94;4976716;28;130493;-73
2022/07/07 04:03:50;;;;;;;7.15;4.60;;;14.60;99.90;;;15.20;100.00;99119.09;4979758;28;130086;-75
2022/07/07 04:06:19;;;;;;;8.93;3.92;;;14.60;99.90;;;15.32;100.00;99121.75;4979689;28;120152;-72
2022/07/07 04:08:49;;;;;;;10.02;4.28;;;14.70;99.90;;;15.30;100.00;99118.56;4965079;28;119417;-72
2022/07/07 04:11:18;;;;;;;5.68;3.80;;;14.70;99.90;;;15.47;100.00;99111.94;4977821;28;130241;-72
2022/07/07 04:13:46;;;;;;;9.27;4.70;;;14.80;98.60;;;15.49;100.00;99125.25;4977128;28;129487;-72
2022/07/07 04:16:16;;;;;;;7.05;3.60;;;14.70;1.00;;;15.44;100.00;99127.13;4979800;28;119590;-73
2022/07/07 04:18:45;;;;;;;9.73;4.32;;;14.80;1.00;;;15.61;100.00;99127.91;4965165;28;118627;-76
2022/07/07 04:21:13;;;;;;;6.85;3.40;;;14.80;1.00;;;15.72;100.00;99131.69;4978240;28;129772;-75
2022/07/07 04:23:42;;;;;;;7.50;4.40;;;14.80;1.00;;;15.80;100.00;99130.75;4979355;28;129558;-77
2022/07/07 04:26:11;;;;;;;7.35;3.70;;;14.80;1.00;;;15.79;100.00;99133.84;4965225;28;118822;-73
2022/07/07 04:28:40;;;;;;;7.55;3.63;;;14.60;1.00;;;15.55;100.00;99141.06;4969744;28;119856;-71
2022/07/07 04:31:08;;;;;;;8.63;4.30;;;14.50;1.00;;;15.43;100.00;99135.69;4970346;28;130275;-71
2022/07/07 04:33:38;;;;;;;5.72;3.70;;;14.50;64.30;;;15.39;100.00;99140.25;4977879;28;129911;-72
2022/07/07 04:36:09;;;;;;;6.07;3.25;;;14.60;58.50;;;15.51;100.00;99142.91;4977777;28;121983;-77
2022/07/07 04:38:38;;;;;;;5.75;3.33;;;14.70;7.80;;;15.58;100.00;99139.53;4979405;28;121690;-73
2022/07/07 04:41:07;;;;;;;5.22;3.63;;;14.50;1.00;;;15.69;100.00;99140.63;4946606;28;129378;-72
2022/07/07 04:43:35;;;;;;;7.22;3.78;;;14.60;1.00;;;15.88;100.00;99144.56;4978838;28;130150;-76
2022/07/07 04:46:04;;;;;;;7.47;3.65;;;14.80;1.00;;;16.10;100.00;99146.66;4978961;28;120001;-76
2022/07/07 04:48:32;;;;;;;5.68;2.85;;;15.20;1.00;;;16.39;100.00;99141.78;4981029;28;119310;-74
2022/07/07 04:51:02;;;;;;;7.85;2.97;;;15.30;1.00;;;16.60;98.03;99148.88;4982467;28;130529;-73
2022/07/07 04:53:31;;;;;;;5.88;2.70;;;15.30;1.00;;;16.92;95.94;99146.78;4984049;28;129773;-73
2022/07/07 04:56:00;;;;;;;5.82;3.10;;;15.50;1.00;;;17.07;93.30;99145.09;4981836;28;119820;-77
2022/07/07 04:58:28;;;;;;;7.45;3.47;;;15.40;1.00;;;17.21;93.51;99155.53;4983181;28;119427;-75
2022/07/07 05:00:57;;;;;;;5.63;3.20;;;15.60;1.00;;;17.39;91.63;99150.34;4980680;28;129773;-74
2022/07/07 05:03:25;;;;;;;5.60;2.50;;;15.60;1.00;;;17.44;90.89;99152.81;4982299;28;128905;-73
2022/07/07 05:05:54;;;;;;;6.55;2.85;;;15.80;1.00;;;17.74;88.43;99154.88;4982573;28;118334;-76
2022/07/07 05:08:24;;;;;;;4.43;2.60;;;15.80;1.00;;;17.90;86.47;99158.28;4967929;28;119139;-75
2022/07/07 05:10:52;;;;;;;9.75;2.88;;;15.80;1.00;;;18.04;85.36;99160.44;4982212;28;129826;-76
2022/07/07 05:13:21;;;;;;;5.50;2.50;;;15.80;1.00;;;17.33;86.68;99163.59;4967566;28;129401;-74
2022/07/07 05:15:49;;;;;;;3.70;2.08;;;15.60;1.00;;;17.25;89.27;99173.66;4982658;28;119524;-72
2022/07/07 05:18:18;;;;;;;5.25;2.00;;;15.80;1.00;;;17.40;88.54;99168.41;4982627;28;119357;-72
2022/07/07 05:20:47;;;;;;;4.55;2.47;;;16.00;1.00;;;17.71;85.80;99167.34;4967960;28;129780;-73
2022/07/07 05:23:15;;;;;;;3.72;2.28;;;15.90;1.00;;;17.90;83.83;99158.28;4967594;28;128820;-74
2022/07/07 05:25:46;;;;;;;4.78;2.20;;;15.90;1.00;;;17.84;84.53;99165.22;4980918;28;121849;-74
2022/07/07 05:28:14;;;;;;;9.93;2.60;;;16.20;1.00;;;17.92;83.26;99166.94;4967872;28;121266;-74
2022/07/07 05:30:43;;;;;;;4.20;2.10;;;16.20;1.00;;;17.03;87.82;99160.69;4967195;28;128313;-71
2022/07/07 05:33:12;;;;;;;5.63;2.25;;;15.80;1.00;;;16.87;89.80;99158.03;4966914;28;128814;-73
2022/07/07 05:35:41;;;;;;;4.78;2.30;;;15.80;1.00;;;16.57;91.62;99160.56;4982299;28;119157;-71
2022/07/07 05:38:09;;;;;;;4.20;2.20;;;15.80;1.00;;;16.40;93.22;99151.59;4983737;28;119422;-70
2022/07/07 05:40:37;;;;;;;4.50;2.00;;;15.70;1.00;;;16.44;92.61;99152.47;4968860;28;129205;-74
2022/07/07 05:43:08;;;;;;;4.80;2.40;;;15.80;1.00;;;16.65;91.95;99156.81;4983748;28;129288;-75
2022/07/07 05:45:37;;;;;;;3.60;2.00;;;16.10;1.00;;;17.18;87.43;99157.06;4984057;28;119922;-76
2022/07/07 05:48:06;;;;;;;4.80;2.17;;;16.20;1.00;;;17.62;84.45;99153.09;4984586;28;119432;-75
2022/07/07 05:50:37;;;;;;;6.82;1.98;;;16.20;1.00;;;17.93;83.55;99160.28;4966094;28;129738;-76
2022/07/07 05:53:05;;;;;;;6.60;2.10;;;16.20;1.00;;;18.24;81.51;99160.34;4982384;28;130026;-75
2022/07/07 05:55:34;;;;;;;3.60;2.00;;;16.70;99.90;;;17.90;83.16;99163.78;4981167;28;119339;-75
2022/07/07 05:58:03;;;;;;;3.92;1.95;;;16.70;99.90;;;17.52;85.43;99154.50;4965473;28;119613;-75
2022/07/07 06:00:33;;;;;;;5.28;1.85;;;16.60;1.00;;;17.73;83.37;99158.75;4966193;28;129063;-75
2022/07/07 06:03:02;;;;;;;4.15;1.77;;;16.70;99.90;;;17.38;84.47;99162.50;4981935;28;129355;-77
2022/07/07 06:05:30;;;;;;;4.32;2.00;;;16.50;99.90;;;17.25;85.55;99157.19;4967366;28;119200;-75
2022/07/07 06:07:58;;;;;;;5.68;2.20;;;16.50;99.90;;;17.92;85.34;99171.63;4967390;28;119149;-76
2022/07/07 06:10:27;;;;;;;3.90;1.90;;;17.00;99.90;;;18.65;80.42;99169.50;4981670;28;130869;-76
2022/07/07 06:12:56;;;;;;;4.57;1.70;;;17.20;99.90;;;18.52;79.50;99161.88;4981657;28;129550;-74
2022/07/07 06:15:25;;;;;;;6.30;1.90;;;17.30;99.90;;;18.97;77.71;99174.63;4962914;28;122948;-74
2022/07/07 06:17:56;;;;;;;8.15;2.05;;;17.20;99.90;;;19.26;75.09;99179.63;4981095;28;121773;-76
2022/07/07 06:20:25;;;;;;;4.03;1.60;;;17.10;99.90;;;19.06;75.97;99181.75;4980873;28;130471;-75
2022/07/07 06:22:54;;;;;;;5.07;1.63;;;16.90;99.90;;;18.92;75.01;99188.69;4981551;28;130073;-76
2022/07/07 06:25:22;;;;;;;4.68;1.80;;;16.60;99.90;;;18.71;75.31;99183.69;4981727;28;119945;-76
2022/07/07 06:27:51;;;;;;;6.13;2.50;;;16.40;99.90;;;18.91;74.80;99189.84;4982966;28;119273;-72
2022/07/07 06:30:21;;;;;;;3.90;1.85;;;16.50;99.90;;;19.09;74.69;99192.81;4980550;28;129965;-74
2022/07/07 06:32:50;;;;;;;5.03;1.98;;;16.90;99.90;;;19.37;72.38;99192.31;4981194;28;129527;-75
2022/07/07 06:35:20;;;;;;;4.38;1.60;;;17.00;99.90;;;19.74;71.03;99194.22;4979678;28;120231;-78
2022/07/07 06:37:49;;;;;;;5.25;2.22;;;17.40;99.90;;;20.20;69.73;99198.50;4978687;28;119128;-76
2022/07/07 06:40:18;;;;;;;4.97;1.77;;;17.90;99.90;;;19.83;71.09;99198.66;4975180;28;129831;-72
2022/07/07 06:42:46;;;;;;;5.20;1.60;;;18.10;99.90;;;19.39;67.12;99200.97;4964741;28;129529;-72
2022/07/07 06:45:23;;;;;;;5.82;1.67;;;16.90;99.90;;;19.68;68.29;99198.50;4980559;28;120106;-73
2022/07/07 06:47:52;;;;;;;3.90;1.80;;;17.10;99.90;;;19.61;68.04;99194.91;4950217;28;118436;-75
2022/07/07 06:50:22;;;;;;;4.05;1.70;;;17.80;99.90;;;20.02;67.84;99187.38;4980870;28;130044;-76
2022/07/07 06:52:50;;;;;;;2.33;1.35;;;18.10;99.90;;;20.44;63.42;99196.28;4965433;28;130201;-71
2022/07/07 06:55:19;;;;;;;5.00;1.75;;;17.70;99.90;;;20.67;64.04;99187.00;4980287;28;120048;-74
2022/07/07 06:57:47;;;;;;;3.90;1.38;;;17.70;99.90;;;20.62;63.20;99191.66;4966619;28;119153;-74
2022/07/07 07:00:17;;;;;;;4.03;1.55;;;18.10;99.90;;;20.52;63.39;99197.94;4980594;28;129795;-75
2022/07/07 07:02:48;;;;;;;5.97;2.13;;;18.20;99.90;;;20.40;63.38;99201.78;4980341;28;130330;-75
2022/07/07 07:05:16;;;;;;;3.70;1.83;;;18.10;99.90;;;20.21;64.02;99204.81;4979073;28;122610;-77
2022/07/07 07:07:47;;;;;;;4.25;1.73;;;17.70;99.90;;;20.17;65.88;99204.78;4979559;28;121826;-75
2022/07/07 07:10:16;;;;;;;4.28;1.25;;;17.90;99.90;;;20.17;65.34;99204.00;4978716;28;130218;-77
2022/07/07 07:12:44;;;;;;;6.30;1.67;;;17.80;99.90;;;19.81;64.30;99212.00;4979938;28;129575;-73
2022/07/07 07:15:13;;;;;;;2.97;1.33;;;17.60;99.90;;;19.84;64.60;99211.25;4949689;28;119844;-77
2022/07/07 07:17:42;;;;;;;4.00;1.30;;;17.50;99.90;;;20.19;60.71;99213.44;4980561;28;119414;-75
2022/07/07 07:20:14;;;;;;;3.65;1.10;;;17.40;99.90;;;20.33;61.47;99217.50;4979757;28;130889;-74
2022/07/07 07:22:43;;;;;;;3.20;1.15;;;17.40;99.90;;;20.60;61.16;99209.75;4980579;28;130209;-74
2022/07/07 07:25:15;;;;;;;7.55;1.60;;;18.10;99.90;;;20.33;63.31;99209.22;4980442;28;119390;-75
2022/07/07 07:27:44;;;;;;;3.80;1.45;;;18.20;99.90;;;20.10;62.00;99215.75;4979196;28;119679;-75
2022/07/07 07:30:14;;;;;;;2.97;1.33;;;18.00;99.90;;;20.67;60.31;99218.09;4979051;28;131570;-75
2022/07/07 07:32:43;;;;;;;3.67;1.40;;;18.20;99.90;;;20.05;62.41;99208.63;4979963;28;129808;-73
2022/07/07 07:35:12;;;;;;;2.83;1.17;;;18.40;99.90;;;19.97;62.66;99209.75;4980622;28;119464;-74
2022/07/07 07:37:41;;;;;;;3.65;1.65;;;18.60;99.90;;;19.75;61.93;99217.81;4965649;28;119076;-73
2022/07/07 07:40:13;;;;;;;4.30;1.45;;;18.10;99.90;;;20.27;60.44;99225.31;4979824;28;129823;-74
2022/07/07 07:42:42;;;;;;;2.17;1.23;;;18.00;99.90;;;20.88;60.10;99224.88;4981926;28;128595;-76
2022/07/07 07:45:11;;;;;;;3.05;1.38;;;18.70;99.90;;;21.76;58.07;99227.50;4980372;28;119857;-75
2022/07/07 07:47:42;;;;;;;9.48;2.60;;;19.50;99.90;;;21.99;53.01;99219.59;4980536;28;121728;-77
2022/07/07 07:50:12;;;;;;;4.00;1.20;;;19.50;99.90;;;22.02;54.61;99218.03;4965800;28;128623;-72
2022/07/07 07:52:43;;;;;;;6.85;1.85;;;19.30;99.90;;;22.30;54.93;99222.75;4980114;28;129922;-78
2022/07/07 07:55:15;;;;;;;4.50;1.15;;;19.60;99.90;;;22.44;52.72;99224.69;4978925;28;122230;-76
2022/07/07 07:57:46;;;;;;;3.83;1.35;;;19.20;99.90;;;22.16;54.75;99229.06;4980296;28;121711;-74
2022/07/07 08:00:18;;;;;;;3.67;1.27;;;19.20;99.90;;;21.76;54.05;99231.03;4980674;28;129737;-76
2022/07/07 08:02:48;;;;;;;4.03;1.25;;;18.60;99.90;;;21.48;56.66;99226.25;4979747;28;129200;-77
2022/07/07 08:05:18;;;;;;;5.75;1.10;;;18.50;99.90;;;21.30;57.02;99228.94;4979987;28;120163;-76
2022/07/07 08:07:47;;;;;;;2.85;1.40;;;18.50;99.90;;;21.65;53.86;99238.53;4979968;28;120079;-77
2022/07/07 08:10:18;;;;;;;2.65;1.30;;;18.60;99.90;;;21.82;53.87;99232.22;4965316;28;128682;-75
2022/07/07 08:12:47;;;;;;;1.70;0.98;;;18.50;99.90;;;21.70;53.99;99232.59;4965800;28;128944;-77
2022/07/07 08:15:18;;;;;;;2.80;1.08;;;18.50;99.90;;;21.97;53.87;99232.22;4980181;28;120345;-73
2022/07/07 08:17:48;;;;;;;3.85;1.27;;;19.00;99.90;;;21.12;55.77;99229.69;4980120;28;119057;-74
2022/07/07 08:20:17;;;;;;;2.22;1.05;;;19.20;99.90;;;21.61;56.86;99226.69;4978517;28;130509;-76
2022/07/07 08:22:46;;;;;;;3.55;1.10;;;19.70;99.90;;;21.92;52.99;99240.91;4966359;28;128093;-76
2022/07/07 08:25:16;;;;;;;4.50;1.50;;;19.40;99.90;;;21.33;54.47;99236.44;4983473;28;119595;-75
2022/07/07 08:27:44;;;;;;;4.72;1.20;;;19.30;99.90;;;21.18;56.02;99244.69;4983278;28;119736;-73
2022/07/07 08:30:13;;;;;;;2.72;1.20;;;19.40;99.90;;;21.19;57.61;99229.72;4983155;28;130029;-76
2022/07/07 08:32:45;;;;;;;2.55;1.27;;;19.10;99.90;;;21.92;55.52;99238.13;4983140;28;130192;-75
2022/07/07 08:35:13;;;;;;;4.43;1.55;;;19.70;99.90;;;21.98;52.25;99244.84;4982694;28;119466;-73
2022/07/07 08:37:42;;;;;;;2.38;1.20;;;19.10;99.90;;;21.96;55.38;99250.00;4983359;28;119926;-73
2022/07/07 08:40:11;;;;;;;3.75;1.30;;;19.30;99.90;;;22.16;52.37;99255.88;4982634;28;129920;-75
2022/07/07 08:42:41;;;;;;;4.47;1.35;;;19.00;99.90;;;22.13;54.33;99240.91;4981574;28;129615;-75
2022/07/07 08:45:12;;;;;;;4.28;1.00;;;19.20;99.90;;;22.00;55.81;99248.00;4966543;28;121522;-76
2022/07/07 08:47:41;;;;;;;1.92;0.98;;;19.30;99.90;;;22.57;52.90;99247.16;4982158;28;121680;-75
2022/07/07 08:50:10;;;;;;;4.10;1.10;;;19.80;99.90;;;22.70;50.47;99244.75;4951011;28;128913;-76
2022/07/07 08:52:40;;;;;;;3.67;1.23;;;20.00;99.90;;;23.12;50.65;99257.69;4984321;28;129070;-77
2022/07/07 08:55:14;;;;;;;2.30;1.00;;;20.00;99.90;;;22.56;50.55;99262.19;4983400;28;119625;-76
2022/07/07 08:57:44;;;;;;;2.10;0.70;;;19.70;99.90;;;22.19;51.20;99261.44;4983056;28;119550;-76
2022/07/07 09:00:14;;;;;;;4.40;1.10;;;19.70;99.90;;;22.02;52.48;99253.94;4982714;28;129849;-74
2022/07/07 09:02:42;;;;;;;3.30;1.10;;;19.20;99.90;;;21.49;52.74;99253.50;4968054;28;129919;-71
2022/07/07 09:05:11;;;;;;;3.60;1.10;;;18.40;99.90;;;21.14;55.41;99263.19;4985016;28;118747;-77
2022/07/07 09:07:48;;;;;;;2.70;1.20;;;18.70;99.90;;;21.68;53.29;99260.59;4983030;28;119452;-75
2022/07/07 09:10:30;;;;;;;3.80;1.10;;;19.00;99.90;;;21.85;50.33;99264.56;4981552;28;129857;-73
2022/07/07 09:13:01;;;;;;;3.47;0.98;;;19.40;99.90;;;22.12;50.65;99272.47;4982271;28;128969;-73
2022/07/07 09:15:40;;;;;;;1.85;1.05;;;19.40;99.90;;;21.80;50.44;99276.03;4981859;28;119509;-75
2022/07/07 09:18:09;;;;;;;2.53;1.15;;;18.90;99.90;;;22.04;50.39;99266.16;4968216;28;118288;-75
2022/07/07 09:20:38;;;;;;;2.13;1.02;;;19.50;99.90;;;22.40;49.02;99262.59;4982068;28;129757;-70
2022/07/07 09:23:06;;;;;;;4.85;1.25;;;19.60;99.90;;;22.35;47.44;99274.06;4964778;28;130168;-74
2022/07/07 09:25:34;;;;;;;2.00;0.88;;;19.30;99.90;;;22.31;48.24;99267.75;4982957;28;119601;-75
2022/07/07 09:28:08;;;;;;;2.47;0.80;;;19.20;99.90;;;22.61;48.29;99270.88;4980658;28;119676;-74
2022/07/07 09:30:39;;;;;;;2.28;0.80;;;19.50;99.90;;;22.87;46.96;99271.56;4969376;28;130797;-73
2022/07/07 09:33:10;;;;;;;1.58;1.10;;;19.90;99.90;;;23.14;47.63;99269.13;4981546;28;129086;-80
2022/07/07 09:38:31;;;;;;;2.08;0.95;;;20.20;99.90;;;23.06;47.81;99272.28;4967117;28;122172;-73
2022/07/07 09:41:03;;;;;;;2.50;0.98;;;20.00;99.90;;;22.36;48.10;99275.63;4966522;28;129782;-74
2022/07/07 09:43:36;;;;;;;1.90;1.00;;;19.10;99.90;;;21.79;50.86;99271.66;4949666;28;128795;-76
2022/07/07 09:46:15;;;;;;;1.30;0.80;;;19.20;99.90;;;22.19;50.55;99277.19;4984592;28;119770;-76
2022/07/07 09:48:47;;;;;;;4.55;1.10;;;19.80;99.90;;;22.36;48.29;99268.16;4984212;28;118156;-75
2022/07/07 09:51:19;;;;;;;1.38;0.60;;;19.90;99.90;;;22.25;47.76;99268.13;4981950;28;130361;-73
2022/07/07 09:54:07;;;;;;;6.30;1.08;;;19.40;99.90;;;22.08;48.60;99282.75;4982419;28;129496;-74
2022/07/07 09:56:38;;;;;;;1.70;0.70;;;19.20;99.90;;;22.18;47.49;99281.94;4982029;28;120031;-72
2022/07/07 09:59:11;;;;;;;1.45;0.82;;;19.80;99.90;;;22.36;47.13;99278.41;4980630;28;119178;-75
2022/07/07 10:01:42;;;;;;;1.25;0.70;;;19.80;99.90;;;22.72;48.29;99283.84;4966105;28;128904;-75
2022/07/07 10:04:13;;;;;;;1.80;1.00;;;20.40;99.90;;;23.12;46.62;99284.56;4966362;28;128210;-74
2022/07/07 10:06:44;;;;;;;4.80;1.50;;;20.50;99.90;;;23.52;45.49;99285.16;4981573;28;119769;-74
2022/07/07 10:09:18;;;;;;;3.40;1.00;;;20.70;99.90;;;23.66;45.70;99275.97;4966416;28;119423;-74
2022/07/07 10:11:50;;;;;;;1.63;0.98;;;20.90;99.90;;;23.41;45.45;99287.97;4980216;28;130162;-71
2022/07/07 10:14:23;;;;;;;3.03;0.90;;;20.30;99.90;;;22.39;48.01;99281.19;4973706;28;130457;-73
2022/07/07 10:16:54;;;;;;;3.05;1.00;;;19.50;99.90;;;21.90;47.35;99283.50;4981546;28;119837;-70
2022/07/07 10:19:25;;;;;;;1.48;0.73;;;19.20;99.90;;;21.69;47.71;99284.28;4981790;28;119753;-73
2022/07/07 10:21:56;;;;;;;1.10;0.85;;;19.00;99.90;;;21.90;48.21;99286.28;4980603;28;129875;-72